createdAt,value
2023-02-02T00:00:16.676Z,37.59
2023-02-02T00:03:25.409Z,36.09
2023-02-02T00:06:34.760Z,30.33
2023-02-02T00:09:55.260Z,29.99
2023-02-02T00:13:40.290Z,31.55
2023-02-02T00:17:49.698Z,27.52
2023-02-02T00:21:27.160Z,29.68
2023-02-02T00:24:52.459Z,33.53
2023-02-02T00:28:05.331Z,22.23
2023-02-02T00:31:13.336Z,24.14
2023-02-02T00:34:23.704Z,26.40
2023-02-02T00:37:32.753Z,24.47
2023-02-02T00:40:39.802Z,27.71
2023-02-02T00:43:46.989Z,32.25
2023-02-02T00:46:54.043Z,34.17
2023-02-02T00:50:00.158Z,40.01
2023-02-02T00:53:09.915Z,43.13
2023-02-02T00:56:16.197Z,44.25
2023-02-02T00:59:23.134Z,51.37
2023-02-02T01:02:29.411Z,53.29
2023-02-02T01:05:38.044Z,55.32
2023-02-02T01:08:46.801Z,60.59
2023-02-02T01:11:53.841Z,61.03
2023-02-02T01:14:59.992Z,60.20
2023-02-02T01:18:09.252Z,65.76
2023-02-02T01:21:18.257Z,74.19
2023-02-02T01:24:29.641Z,79.20
2023-02-02T01:27:35.798Z,80.68
2023-02-02T01:30:43.929Z,86.92
2023-02-02T01:33:56.463Z,88.84
2023-02-02T01:37:04.980Z,87.31
2023-02-02T01:40:20.985Z,85.80
2023-02-02T01:43:32.320Z,89.04
2023-02-02T01:46:47.436Z,93.54
2023-02-02T01:49:59.526Z,98.30
2023-02-02T01:53:16.384Z,101.64
2023-02-02T01:56:35.836Z,100.98
2023-02-02T01:59:42.992Z,104.17
2023-02-02T02:02:52.573Z,107.22
2023-02-02T02:06:08.959Z,101.50
2023-02-02T02:09:15.718Z,91.28
2023-02-02T02:12:24.283Z,83.64
2023-02-02T02:15:59.261Z,62.45
2023-02-02T02:19:33.701Z,48.64
2023-02-02T02:23:45.933Z,48.63
2023-02-02T02:27:42.187Z,45.10
2023-02-02T02:31:27.818Z,39.31
2023-02-02T02:34:56.474Z,39.73
2023-02-02T02:38:19.589Z,40.13
2023-02-02T02:41:36.613Z,38.46
2023-02-02T02:44:44.988Z,42.69
2023-02-02T02:47:54.424Z,41.74
2023-02-02T02:51:43.927Z,41.35
2023-02-02T02:54:58.649Z,39.49
2023-02-02T02:58:24.672Z,35.11
2023-02-02T03:01:48.492Z,37.55
2023-02-02T03:05:25.437Z,38.28
2023-02-02T03:08:44.744Z,37.01
2023-02-02T03:11:51.537Z,38.42
2023-02-02T03:14:57.493Z,37.49
2023-02-02T03:18:04.554Z,36.62
2023-02-02T03:21:10.445Z,37.50
2023-02-02T03:24:32.240Z,36.36
2023-02-02T03:27:38.127Z,32.93
2023-02-02T03:30:47.769Z,36.03
2023-02-02T03:33:56.480Z,40.22
2023-02-02T03:37:03.314Z,43.01
2023-02-02T03:40:14.353Z,41.99
2023-02-02T03:43:24.652Z,43.01
2023-02-02T03:46:30.851Z,50.17
2023-02-02T03:49:37.643Z,46.29
2023-02-02T03:52:47.098Z,45.05
2023-02-02T03:55:56.526Z,52.55
2023-02-02T03:59:02.377Z,60.11
2023-02-02T04:02:25.233Z,55.25
2023-02-02T04:05:31.305Z,50.55
2023-02-02T04:08:39.707Z,51.83
2023-02-02T04:11:48.236Z,53.94
2023-02-02T04:14:54.991Z,55.85
2023-02-02T04:18:00.940Z,58.94
2023-02-02T04:21:20.305Z,78.21
2023-02-02T04:24:36.599Z,96.25
2023-02-02T04:27:47.020Z,88.34
2023-02-02T04:30:53.570Z,81.69
2023-02-02T04:34:00.967Z,66.88
2023-02-02T04:37:06.848Z,80.79
2023-02-02T04:40:16.191Z,94.06
2023-02-02T04:43:24.702Z,102.14
2023-02-02T04:46:32.386Z,86.76
2023-02-02T04:49:38.180Z,135.05
2023-02-02T04:52:44.949Z,164.55
2023-02-02T04:55:50.811Z,123.91
2023-02-02T04:59:00.158Z,81.97
2023-02-02T05:02:07.399Z,86.98
2023-02-02T05:05:17.617Z,95.96
2023-02-02T05:08:23.614Z,97.65
2023-02-02T05:11:31.128Z,98.46
2023-02-02T05:14:39.582Z,83.44
2023-02-02T05:17:46.302Z,70.67
2023-02-02T05:20:52.179Z,86.75
2023-02-02T05:23:59.954Z,70.47
2023-02-02T05:27:05.987Z,70.14
2023-02-02T05:30:17.820Z,70.01
2023-02-02T05:33:23.792Z,69.89
2023-02-02T05:36:36.864Z,79.22
2023-02-02T05:39:46.981Z,104.34
2023-02-02T05:42:53.726Z,117.39
2023-02-02T05:46:03.111Z,171.56
2023-02-02T05:49:10.109Z,185.06
2023-02-02T05:52:25.200Z,178.48
2023-02-02T05:55:32.211Z,174.81
2023-02-02T05:58:38.124Z,155.10
2023-02-02T06:01:48.145Z,137.51
2023-02-02T06:04:54.129Z,117.78
2023-02-02T06:08:01.860Z,116.17
2023-02-02T06:11:13.673Z,135.05
2023-02-02T06:14:24.414Z,124.79
2023-02-02T06:17:33.608Z,137.80
2023-02-02T06:20:40.767Z,151.78
2023-02-02T06:23:50.069Z,145.15
2023-02-02T06:27:01.950Z,147.46
2023-02-02T06:30:09.106Z,159.36
2023-02-02T06:33:25.023Z,134.43
2023-02-02T06:36:31.724Z,113.44
2023-02-02T06:39:40.447Z,111.82
2023-02-02T06:42:46.446Z,99.88
2023-02-02T06:45:53.390Z,99.63
2023-02-02T06:49:01.994Z,94.80
2023-02-02T06:52:09.980Z,93.66
2023-02-02T06:55:15.886Z,92.28
2023-02-02T06:58:22.631Z,79.50
2023-02-02T07:01:28.676Z,85.51
2023-02-02T07:04:38.804Z,90.61
2023-02-02T07:07:44.734Z,105.15
2023-02-02T07:11:14.155Z,97.48
2023-02-02T07:14:17.595Z,102.45
2023-02-02T07:17:24.319Z,100.92
2023-02-02T07:20:32.859Z,95.13
2023-02-02T07:23:39.543Z,101.30
2023-02-02T07:26:46.407Z,104.57
2023-02-02T07:29:59.887Z,99.21
2023-02-02T07:33:25.430Z,91.24
2023-02-02T07:36:35.029Z,112.46
2023-02-02T07:39:40.884Z,122.28
2023-02-02T07:42:50.125Z,106.05
2023-02-02T07:45:56.074Z,104.94
2023-02-02T07:49:08.900Z,103.09
2023-02-02T07:52:22.664Z,112.90
2023-02-02T07:55:29.582Z,103.78
2023-02-02T07:58:35.640Z,95.29
2023-02-02T08:01:47.218Z,102.99
2023-02-02T08:04:53.150Z,101.08
2023-02-02T08:08:02.619Z,105.65
2023-02-02T08:11:11.594Z,103.00
2023-02-02T08:14:18.326Z,113.42
2023-02-02T08:17:24.251Z,117.82
2023-02-02T08:20:31.226Z,120.03
2023-02-02T08:23:41.935Z,117.01
2023-02-02T08:26:49.017Z,119.75
2023-02-02T08:29:55.157Z,135.97
2023-02-02T08:33:02.060Z,117.93
2023-02-02T08:36:12.698Z,132.01
2023-02-02T08:39:22.914Z,135.83
2023-02-02T08:42:28.927Z,149.09
2023-02-02T08:46:13.249Z,210.52
2023-02-02T08:49:02.614Z,169.99
2023-02-02T08:52:12.437Z,138.77
2023-02-02T08:55:20.877Z,124.78
2023-02-02T08:58:51.123Z,109.99
2023-02-02T09:01:58.931Z,93.36
2023-02-02T09:05:05.651Z,74.24
2023-02-02T09:08:11.789Z,64.30
2023-02-02T09:11:22.942Z,69.58
2023-02-02T09:14:28.786Z,46.75
2023-02-02T09:17:41.929Z,42.18
2023-02-02T09:20:47.832Z,53.98
2023-02-02T09:23:56.920Z,61.47
2023-02-02T09:27:07.844Z,57.82
2023-02-02T09:30:16.553Z,62.35
2023-02-02T09:33:22.689Z,76.34
2023-02-02T09:36:29.823Z,70.75
2023-02-02T09:39:35.735Z,111.68
2023-02-02T09:43:09.852Z,105.70
2023-02-02T09:46:36.558Z,100.41
2023-02-02T09:50:01.844Z,106.76
2023-02-02T09:53:24.830Z,100.17
2023-02-02T09:56:44.262Z,81.95
2023-02-02T09:59:56.990Z,101.14
2023-02-02T10:03:15.946Z,78.20
2023-02-02T10:06:40.567Z,63.09
2023-02-02T10:10:18.001Z,67.55
2023-02-02T10:13:45.157Z,60.84
2023-02-02T10:17:02.826Z,58.09
2023-02-02T10:20:36.952Z,61.45
2023-02-02T10:23:47.451Z,67.47
2023-02-02T10:26:58.826Z,85.53
2023-02-02T10:30:18.802Z,123.73
2023-02-02T10:33:40.987Z,144.43
2023-02-02T10:37:22.180Z,126.39
2023-02-02T10:40:48.511Z,138.92
2023-02-02T10:44:19.198Z,168.68
2023-02-02T10:47:33.504Z,155.02
2023-02-02T10:50:51.767Z,96.28
2023-02-02T10:54:05.417Z,123.67
2023-02-02T10:57:19.680Z,119.04
2023-02-02T11:00:35.654Z,87.63
2023-02-02T11:03:42.913Z,99.24
2023-02-02T11:06:51.754Z,107.94
2023-02-02T11:10:01.707Z,118.91
2023-02-02T11:13:19.337Z,113.49
2023-02-02T11:16:42.607Z,133.22
2023-02-02T11:19:50.066Z,145.82
2023-02-02T11:23:08.723Z,116.40
2023-02-02T11:26:20.927Z,109.80
2023-02-02T11:29:38.277Z,121.76
2023-02-02T11:48:10.888Z,117.85
2023-02-02T11:51:29.032Z,105.15
2023-02-02T11:54:40.810Z,97.91
2023-02-02T11:58:28.412Z,93.72
2023-02-02T12:01:45.481Z,104.17
2023-02-02T12:04:58.121Z,105.32
2023-02-02T12:08:05.265Z,99.85
2023-02-02T12:11:36.590Z,103.69
2023-02-02T12:14:56.849Z,111.50
2023-02-02T12:18:31.723Z,94.43
2023-02-02T12:22:02.675Z,95.73
2023-02-02T12:25:52.308Z,88.72
2023-02-02T12:29:35.299Z,149.21
2023-02-02T12:33:26.932Z,285.58
2023-02-02T12:36:55.390Z,127.07
2023-02-02T12:40:28.114Z,106.60
2023-02-02T13:15:27.239Z,122.32
2023-02-02T13:18:45.054Z,174.66
2023-02-02T13:21:54.690Z,135.03
2023-02-02T13:25:11.537Z,112.17
2023-02-02T13:28:38.685Z,159.29
2023-02-02T13:31:59.718Z,142.82
2023-02-02T13:35:19.636Z,229.25
2023-02-02T13:38:30.602Z,352.32
2023-02-02T13:41:36.900Z,147.61
2023-02-02T13:44:53.701Z,209.97
2023-02-02T13:48:22.294Z,149.24
2023-02-02T13:51:53.964Z,138.77
2023-02-02T13:55:53.058Z,145.84
2023-02-02T13:59:38.573Z,207.13
2023-02-02T14:02:52.355Z,250.36
2023-02-02T14:06:13.619Z,133.90
2023-02-02T14:09:22.977Z,103.71
2023-02-02T14:12:37.612Z,393.91
2023-02-02T14:15:47.860Z,215.10
2023-02-02T14:19:00.084Z,284.69
2023-02-02T14:22:43.902Z,233.39
2023-02-02T14:26:09.895Z,175.86
2023-02-02T14:30:00.686Z,110.44
2023-02-02T14:33:47.913Z,131.78
2023-02-02T14:37:31.770Z,147.85
2023-02-02T14:41:00.376Z,170.01
2023-02-02T14:44:07.320Z,159.81
2023-02-02T14:47:50.806Z,125.29
2023-02-02T14:51:05.977Z,97.19
2023-02-02T14:54:35.831Z,103.38
2023-02-02T14:57:43.116Z,93.20
2023-02-02T15:01:11.666Z,103.85
2023-02-02T15:04:31.015Z,114.05
2023-02-02T15:07:57.745Z,104.06
2023-02-02T15:11:24.668Z,98.65
2023-02-02T15:14:44.426Z,80.13
2023-02-02T15:18:19.695Z,96.39
2023-02-02T15:21:31.209Z,109.50
2023-02-02T15:24:41.251Z,149.21
2023-02-02T15:28:01.066Z,198.82
2023-02-02T15:31:26.140Z,134.39
2023-02-02T15:34:45.221Z,208.30
2023-02-02T15:37:59.065Z,195.27
2023-02-02T15:41:26.860Z,277.94
2023-02-02T15:44:39.631Z,269.85
2023-02-02T15:47:48.237Z,285.24
2023-02-02T15:50:57.721Z,223.18
2023-02-02T15:54:32.115Z,249.88
2023-02-02T15:57:43.550Z,125.20
2023-02-02T16:01:17.501Z,199.72
2023-02-02T16:04:33.148Z,181.72
2023-02-02T16:07:40.098Z,163.98
2023-02-02T16:10:49.230Z,122.46
2023-02-02T16:14:05.708Z,128.33
2023-02-02T16:17:28.987Z,132.45
2023-02-02T16:20:43.577Z,140.94
2023-02-02T16:23:51.643Z,152.58
2023-02-02T16:27:04.016Z,155.98
2023-02-02T16:30:26.694Z,136.52
2023-02-02T16:33:41.513Z,150.85
2023-02-02T16:37:09.385Z,200.96
2023-02-02T16:40:32.061Z,156.45
2023-02-02T16:43:41.166Z,145.53
2023-02-02T16:46:53.339Z,204.98
2023-02-02T16:50:37.182Z,212.30
2023-02-02T16:53:47.259Z,260.15
2023-02-02T16:57:06.987Z,216.43
2023-02-02T17:00:27.228Z,157.20
2023-02-02T17:03:40.885Z,190.86
2023-02-02T17:06:53.657Z,177.56
2023-02-02T17:10:31.120Z,177.57
2023-02-02T17:13:43.529Z,175.80
2023-02-02T17:16:50.346Z,570.08
2023-02-02T17:19:57.392Z,633.13
2023-02-02T17:23:10.870Z,411.53
2023-02-02T17:26:17.951Z,346.88
2023-02-02T17:29:26.281Z,408.70
2023-02-02T17:32:35.216Z,241.54
2023-02-02T17:35:53.565Z,189.96
2023-02-02T17:39:03.438Z,173.65
2023-02-02T17:42:27.671Z,165.72
2023-02-02T17:45:37.267Z,197.78
2023-02-02T17:48:43.379Z,181.45
2023-02-02T17:51:51.070Z,240.79
2023-02-02T17:54:59.768Z,192.56
2023-02-02T17:58:10.698Z,170.95
2023-02-02T18:01:16.855Z,200.50
2023-02-02T18:04:25.219Z,155.16
2023-02-02T18:07:31.388Z,127.92
2023-02-02T18:10:49.392Z,117.89
2023-02-02T18:13:55.433Z,136.19
2023-02-02T18:17:10.196Z,96.12
2023-02-02T18:20:23.200Z,142.36
2023-02-02T18:23:30.643Z,169.62
2023-02-02T18:26:44.131Z,118.86
2023-02-02T18:29:51.746Z,103.25
2023-02-02T18:32:57.771Z,134.70
2023-02-02T18:36:04.647Z,146.97
2023-02-02T18:39:11.773Z,254.97
2023-02-02T18:42:21.468Z,184.57
2023-02-02T18:45:27.956Z,247.52
2023-02-02T18:48:35.698Z,258.55
2023-02-02T18:51:45.022Z,244.72
2023-02-02T18:54:52.993Z,270.43
2023-02-02T18:58:02.173Z,421.32
2023-02-02T19:01:13.813Z,263.63
2023-02-02T19:04:20.058Z,185.46
2023-02-02T19:07:39.298Z,169.81
2023-02-02T19:10:52.050Z,153.54
2023-02-02T19:14:04.902Z,180.33
2023-02-02T19:17:25.179Z,184.00
2023-02-02T19:20:34.006Z,200.93
2023-02-02T19:23:46.871Z,180.84
2023-02-02T19:26:54.180Z,192.10
2023-02-02T19:30:06.038Z,247.97
2023-02-02T19:33:17.467Z,254.47
2023-02-02T19:36:31.137Z,279.02
2023-02-02T19:39:37.932Z,219.81
2023-02-02T19:42:52.535Z,191.24
2023-02-02T19:46:04.479Z,173.53
2023-02-02T19:49:21.377Z,151.79
2023-02-02T19:52:30.129Z,146.91
2023-02-02T19:55:40.226Z,115.92
2023-02-02T19:58:59.140Z,126.21
2023-02-02T20:02:51.876Z,136.51
2023-02-02T20:06:08.157Z,153.89
2023-02-02T20:09:19.807Z,126.17
2023-02-02T20:12:34.951Z,127.97
2023-02-02T20:15:43.318Z,115.63
2023-02-02T20:18:57.134Z,172.57
2023-02-02T20:22:04.424Z,253.21
2023-02-02T20:25:11.890Z,159.47
2023-02-02T20:28:40.217Z,191.25
2023-02-02T20:31:50.580Z,197.03
2023-02-02T20:35:02.506Z,208.53
2023-02-02T20:38:23.700Z,200.11
2023-02-02T20:41:29.784Z,192.10
2023-02-02T20:44:38.362Z,203.48
2023-02-02T20:47:44.417Z,168.08
2023-02-02T20:50:53.907Z,151.77
2023-02-02T20:54:07.717Z,151.37
2023-02-02T20:57:14.880Z,184.87
2023-02-02T21:00:30.446Z,190.78
2023-02-02T21:03:39.385Z,186.14
2023-02-02T21:06:49.442Z,162.30
2023-02-02T21:09:56.481Z,182.17
2023-02-02T21:13:22.068Z,196.88
2023-02-02T21:16:30.350Z,202.36
2023-02-02T21:19:36.449Z,178.55
2023-02-02T21:22:46.165Z,152.18
2023-02-02T21:25:55.422Z,165.19
2023-02-02T21:29:02.503Z,151.41
2023-02-02T21:32:09.211Z,150.26
2023-02-02T21:35:21.030Z,164.58
2023-02-02T21:38:30.314Z,159.49
2023-02-02T21:41:37.756Z,153.87
2023-02-02T21:44:49.885Z,165.19
2023-02-02T21:48:00.798Z,190.66
2023-02-02T21:51:27.081Z,186.84
2023-02-02T21:54:41.388Z,165.48
2023-02-02T21:57:47.319Z,166.36
2023-02-02T22:00:55.495Z,178.77
2023-02-02T22:04:08.109Z,166.65
2023-02-02T22:07:31.114Z,177.24
2023-02-02T22:10:45.482Z,202.90
2023-02-02T22:13:52.690Z,171.69
2023-02-02T22:17:02.064Z,172.80
2023-02-02T22:20:32.932Z,148.21
2023-02-02T22:23:45.784Z,169.20
2023-02-02T22:26:55.801Z,170.54
2023-02-02T22:30:20.428Z,170.36
2023-02-02T22:33:27.942Z,154.81
2023-02-02T22:36:33.893Z,144.41
2023-02-02T22:39:42.954Z,134.04
2023-02-02T22:42:51.593Z,161.82
2023-02-02T22:45:58.482Z,189.69
2023-02-02T22:49:04.650Z,200.46
2023-02-02T22:52:11.378Z,167.65
2023-02-02T22:55:18.257Z,159.38
2023-02-02T22:58:28.572Z,136.99
2023-02-02T23:01:34.447Z,117.98
2023-02-02T23:04:41.192Z,99.46
2023-02-02T23:07:48.061Z,112.62
2023-02-02T23:10:54.861Z,114.01
2023-02-02T23:14:03.555Z,109.50
2023-02-02T23:17:10.703Z,113.96
2023-02-02T23:20:18.153Z,108.22
2023-02-02T23:23:25.134Z,118.28
2023-02-02T23:26:30.983Z,130.33
2023-02-02T23:29:40.243Z,123.77
2023-02-02T23:32:46.384Z,139.53
2023-02-02T23:35:53.048Z,146.74
2023-02-02T23:38:58.985Z,151.35
2023-02-02T23:42:05.799Z,141.31
2023-02-02T23:45:16.232Z,143.82
2023-02-02T23:48:24.320Z,154.02
2023-02-02T23:51:33.563Z,149.99
2023-02-02T23:54:44.000Z,159.55
2023-02-02T23:57:50.339Z,153.69
